Crown Topaz — 3FAS9 — position and weather

sailwx.info

Track history (hours):
 
Tides and Currents Weather Stations Pressure Air Temp Water Temp Dewpoint Dewpoint Depression Visibility Wind Speed Wind Dir Waves Ship Positions

Crown Topaz

Last reported at 2017-Sep-17 09:38 UTC. Time now 2017-Sep-21 19:45 UTC.
Position N 38°38' W 030°50'.

Length 152 m; draft 6.6 m.

Type: Ship. MMSI: 357144000.

Date/timePositionNaut miles runAvg speedWind from/ knotsBaromVisibWave heightAir tempDewpointWater temp
2017-Sep-17 09:38N 38°38' W 030°50'318.8
2017-Sep-17 09:28N 38°39' W 030°46'918.8
2017-Sep-17 09:00N 38°44' W 030°37'919.0
2017-Sep-17 08:30N 38°48' W 030°26'918.6
2017-Sep-17 08:00N 38°53' W 030°16'918.8
2017-Sep-17 07:30N 38°58' W 030°06'919.0
2017-Sep-17 07:00N 39°03' W 029°55'918.8
2017-Sep-17 06:30N 39°08' W 029°45'918.7
2017-Sep-17 06:00N 39°12' W 029°34'919.0
2017-Sep-17 05:30N 39°18' W 029°24'918.6
2017-Sep-17 05:00N 39°23' W 029°14'918.8
2017-Sep-17 04:31N 39°28' W 029°04'918.5
2017-Sep-17 04:00N 39°32' W 028°53'918.9
2017-Sep-17 03:30N 39°37' W 028°43'918.8
2017-Sep-17 03:00N 39°42' W 028°33'918.8
2017-Sep-17 02:30N 39°47' W 028°22'1019.2
2017-Sep-17 02:00N 39°52' W 028°11'1018.8
2017-Sep-17 01:29N 39°57' W 028°01'1019.2
2017-Sep-17 00:57N 40°02' W 027°49'  
2017-Sep-14 10:25N 49°44' W 004°31'715.7
2017-Sep-14 10:00N 49°45' W 004°21'815.7
2017-Sep-14 09:31N 49°46' W 004°09'816.0
2017-Sep-14 09:00N 49°48' W 003°57'816.6
2017-Sep-14 08:31N 49°49' W 003°44'917.5
2017-Sep-14 08:01N 49°51' W 003°31'917.9
2017-Sep-14 07:30N 49°53' W 003°17'918.2
2017-Sep-14 07:01N 49°56' W 003°04'918.6
2017-Sep-14 06:31N 49°59' W 002°50'918.9
2017-Sep-14 06:01N 50°02' W 002°36'2418.4
2017-Sep-14 04:43N 50°07' W 002°00'417.6
2017-Sep-14 04:30N 50°08' W 001°55'917.3
2017-Sep-14 04:01N 50°11' W 001°42'816.6
2017-Sep-14 03:30N 50°13' W 001°29'816.0
2017-Sep-14 03:00N 50°15' W 001°17'815.4
2017-Sep-14 02:29N 50°18' W 001°05'1115.1
2017-Sep-14 01:46N 50°21' W 000°49'1215.2
2017-Sep-14 00:56N 50°24' W 000°30'715.9
2017-Sep-14 00:31N 50°26' W 000°20'816.2
2017-Sep-14 00:00N 50°28' W 000°07'917.1
2017-Sep-13 23:30N 50°29' E 000°06'917.6
2017-Sep-13 23:01N 50°31' E 000°19'918.0
2017-Sep-13 22:31N 50°34' E 000°33'918.1
2017-Sep-13 22:01N 50°38' E 000°45'1018.4
2017-Sep-13 21:27N 50°44' E 000°58'818.2
2017-Sep-13 21:00N 50°49' E 001°09'917.6
2017-Sep-13 20:30N 50°55' E 001°19'817.0
2017-Sep-13 20:01N 51°01' E 001°28'816.0
2017-Sep-13 19:31N 51°07' E 001°37'815.9
2017-Sep-13 19:01N 51°13' E 001°45'815.9
2017-Sep-13 18:31N 51°19' E 001°53'815.4
2017-Sep-13 18:01N 51°25' E 002°01'816.1
2017-Sep-13 17:31N 51°22' E 002°13'714.7
2017-Sep-13 17:01N 51°22' E 002°24'713.1
2017-Sep-13 16:30N 51°23' E 002°35'611.3
2017-Sep-13 16:00N 51°22' E 002°44'5 9.1
2017-Sep-13 15:30N 51°22' E 002°51'611.6
2017-Sep-13 15:00N 51°24' E 003°00'714.5
2017-Sep-13 14:31N 51°24' E 003°12'815.5
2017-Sep-13 14:01N 51°25' E 003°24'713.0
2017-Sep-13 13:30N 51°26' E 003°34'4 7.2
2017-Sep-13 13:00N 51°27' E 003°40'612.0
2017-Sep-13 12:30N 51°22' E 003°46'612.4
2017-Sep-13 12:01N 51°22' E 003°56'5 9.3
2017-Sep-13 11:30N 51°25' E 004°02'510.5
2017-Sep-13 11:00N 51°23' E 004°10'510.1
2017-Sep-13 10:30N 51°20' E 004°16'4 8.1
2017-Sep-13 10:01N 51°17' E 004°20'0 0.2
2017-Sep-13 09:30N 51°17' E 004°20'0 0.0
2017-Sep-13 09:00N 51°17' E 004°20'1 2.6
2017-Sep-13 08:31N 51°16' E 004°21'1 1.6
2017-Sep-13 08:00N 51°16' E 004°23'0 0.0
2017-Sep-13 07:29N 51°16' E 004°23'0 0.0
2017-Sep-13 06:59N 51°16' E 004°23'0 0.0
2017-Sep-13 06:29N 51°16' E 004°23'0 0.0
2017-Sep-13 05:59N 51°16' E 004°23'0 0.0
2017-Sep-13 05:29N 51°16' E 004°23'0 0.0
2017-Sep-13 04:59N 51°16' E 004°23'0 0.0
2017-Sep-13 04:29N 51°16' E 004°23'0 0.0
2017-Sep-13 03:59N 51°16' E 004°23'0 0.0
2017-Sep-13 03:29N 51°16' E 004°23'0 0.0
2017-Sep-13 02:59N 51°16' E 004°23'0 0.0
2017-Sep-13 02:29N 51°16' E 004°23'0 0.0
2017-Sep-13 01:59N 51°16' E 004°23'0 0.0
2017-Sep-13 01:29N 51°16' E 004°23'0 0.0
2017-Sep-13 00:59N 51°16' E 004°23'0 0.0
2017-Sep-13 00:29N 51°16' E 004°23'0 0.0
2017-Sep-12 23:59N 51°16' E 004°23'0 0.0
2017-Sep-12 23:29N 51°16' E 004°23'0 0.0
2017-Sep-12 22:59N 51°16' E 004°23'0 0.0
2017-Sep-12 22:29N 51°16' E 004°23'0 0.0
2017-Sep-12 21:59N 51°16' E 004°23'0 0.0
2017-Sep-12 21:29N 51°16' E 004°23'0 0.0
2017-Sep-12 20:59N 51°16' E 004°23'0 0.0
2017-Sep-12 20:29N 51°16' E 004°23'0 0.0
2017-Sep-12 19:59N 51°16' E 004°23'0 0.0
2017-Sep-12 19:26N 51°16' E 004°23'0 0.0
2017-Sep-12 18:59N 51°16' E 004°23'0 0.0
2017-Sep-12 18:29N 51°16' E 004°23'0 0.0
2017-Sep-12 17:59N 51°16' E 004°23'0 0.0
2017-Sep-12 17:29N 51°16' E 004°23'0 0.0
2017-Sep-12 16:59N 51°16' E 004°23'0 0.0
2017-Sep-12 16:29N 51°16' E 004°23'0 0.0
2017-Sep-12 15:59N 51°16' E 004°23'0 0.0
2017-Sep-12 15:29N 51°16' E 004°23'0 0.0
2017-Sep-12 14:59N 51°16' E 004°23'0 0.0
2017-Sep-12 14:29N 51°16' E 004°23'0 0.0
2017-Sep-12 13:59N 51°16' E 004°23'0 0.0
2017-Sep-12 13:29N 51°16' E 004°23'0 0.0
2017-Sep-12 12:59N 51°16' E 004°23'0 0.0
2017-Sep-12 12:29N 51°16' E 004°23'0 0.0
2017-Sep-12 11:59N 51°16' E 004°23'0 0.0
2017-Sep-12 11:29N 51°16' E 004°23'0 0.0
2017-Sep-12 10:59N 51°16' E 004°23'0 0.0
2017-Sep-12 10:29N 51°16' E 004°23'0 0.0
2017-Sep-12 09:59N 51°16' E 004°23'0 0.0
2017-Sep-12 09:29N 51°16' E 004°23'0 0.0
2017-Sep-12 08:59N 51°16' E 004°23'0 0.0
2017-Sep-12 08:29N 51°16' E 004°23'0 0.0
2017-Sep-12 07:59N 51°16' E 004°23'0 0.0
2017-Sep-12 07:29N 51°16' E 004°23'0 0.0
2017-Sep-12 06:59N 51°16' E 004°23'0 0.0
2017-Sep-12 06:29N 51°16' E 004°23'0 0.0
2017-Sep-12 05:59N 51°16' E 004°23'0 0.0
2017-Sep-12 05:29N 51°16' E 004°23'0 0.0
2017-Sep-12 04:59N 51°16' E 004°23'0 0.0
2017-Sep-12 04:29N 51°16' E 004°23'0 0.0
2017-Sep-12 03:59N 51°16' E 004°23'0 0.0
2017-Sep-12 03:29N 51°16' E 004°23'0 0.0
2017-Sep-12 02:59N 51°16' E 004°23'0 0.0
2017-Sep-12 02:29N 51°16' E 004°23'0 0.0
2017-Sep-12 01:59N 51°16' E 004°23'0 0.0
2017-Sep-12 01:29N 51°16' E 004°23'0 0.0
2017-Sep-12 00:59N 51°16' E 004°23'0 0.0
2017-Sep-12 00:29N 51°16' E 004°23'0 0.0
2017-Sep-11 23:59N 51°16' E 004°23'0 0.0
2017-Sep-11 23:29N 51°16' E 004°23'0 0.0
2017-Sep-11 22:59N 51°16' E 004°23'0 0.0
2017-Sep-11 22:29N 51°16' E 004°23'0 0.0
2017-Sep-11 21:59N 51°16' E 004°23'0 0.0
2017-Sep-11 21:29N 51°16' E 004°23'0 0.0
2017-Sep-11 20:59N 51°16' E 004°23'0 0.0
2017-Sep-11 20:29N 51°16' E 004°23'0 0.0
2017-Sep-11 19:59N 51°16' E 004°23'0 0.0
2017-Sep-11 19:29N 51°16' E 004°23'0 0.0
2017-Sep-11 18:59N 51°16' E 004°23'0 0.0
2017-Sep-11 18:29N 51°16' E 004°23'0 0.0
2017-Sep-11 17:59N 51°16' E 004°23'0 0.0
2017-Sep-11 17:29N 51°16' E 004°23'0 0.0
2017-Sep-11 16:59N 51°16' E 004°23'0 0.0
2017-Sep-11 16:29N 51°16' E 004°23'0 0.0
2017-Sep-11 15:59N 51°16' E 004°23'0 0.0
2017-Sep-11 15:29N 51°16' E 004°23'0 0.0
2017-Sep-11 14:59N 51°16' E 004°23'0 0.0
2017-Sep-11 14:29N 51°16' E 004°23'0 0.0
2017-Sep-11 13:59N 51°16' E 004°23'0 0.0
2017-Sep-11 13:29N 51°16' E 004°23'0 0.0
2017-Sep-11 12:59N 51°16' E 004°23'0 0.0
2017-Sep-11 12:29N 51°16' E 004°23'0 0.0
2017-Sep-11 11:59N 51°16' E 004°23'0 0.0
2017-Sep-11 11:29N 51°16' E 004°23'0 0.0
2017-Sep-11 10:59N 51°16' E 004°23'0 0.0
2017-Sep-11 10:29N 51°16' E 004°23'0 0.0
2017-Sep-11 10:00N 51°16' E 004°23'2 3.7
2017-Sep-11 09:31N 51°17' E 004°20'0 0.2
2017-Sep-11 09:01N 51°17' E 004°20'0 1.0
2017-Sep-11 08:30N 51°17' E 004°19'3 6.3
2017-Sep-11 08:00N 51°19' E 004°16'5 9.8
2017-Sep-11 07:30N 51°24' E 004°12'510.5
2017-Sep-11 07:00N 51°22' E 004°04'5 9.8
2017-Sep-11 06:30N 51°26' E 003°59'611.8
2017-Sep-11 06:00N 51°21' E 003°54'611.6
2017-Sep-11 05:30N 51°22' E 003°44'611.1
2017-Sep-11 05:00N 51°26' E 003°38'510.5
2017-Sep-11 04:30N 51°25' E 003°30'917.1
2017-Sep-11 04:00N 51°24' E 003°16'918.7
2017-Sep-11 03:30N 51°24' E 003°01'917.1
2017-Sep-11 03:00N 51°22' E 002°48'611.2
2017-Sep-11 02:30N 51°22' E 002°39'5 9.5
2017-Sep-11 02:01N 51°22' E 002°32'5 9.5
2017-Sep-11 01:30N 51°20' E 002°24'511.0
2017-Sep-11 01:00N 51°18' E 002°17'510.7
2017-Sep-11 00:30N 51°15' E 002°10'713.4
2017-Sep-11 00:01N 51°11' E 002°00'713.0
2017-Sep-10 23:30N 51°08' E 001°51'612.7
2017-Sep-10 23:00N 51°04' E 001°44'713.6
2017-Sep-10 22:30N 50°60' E 001°35'713.7
2017-Sep-10 22:00N 50°55' E 001°27'714.1
2017-Sep-10 21:29N 50°48' E 001°24'714.0
2017-Sep-10 20:59N 50°42' E 001°19'4114.6
2017-Sep-10 18:11N 50°24' E 000°21'314.7
2017-Sep-10 17:59N 50°24' E 000°16'714.6
2017-Sep-10 17:30N 50°22' E 000°05'714.0
2017-Sep-10 17:01N 50°23' W 000°05'714.5
2017-Sep-10 16:31N 50°26' W 000°16'714.5
2017-Sep-10 16:00N 50°30' W 000°26'714.7
2017-Sep-10 15:30N 50°33' W 000°36'713.7
2017-Sep-10 15:00N 50°36' W 000°46'1211.5
2017-Sep-10 14:00N 50°43' W 001°00'510.0
2017-Sep-10 13:30N 50°47' W 001°06'2 4.1
2017-Sep-10 13:00N 50°49' W 001°06'0 0.1
2017-Sep-10 12:30N 50°49' W 001°06'0 0.0
2017-Sep-10 12:00N 50°49' W 001°06'0 0.0
2017-Sep-10 11:30N 50°49' W 001°06'0 0.0
2017-Sep-10 11:00N 50°49' W 001°06'0 0.0
2017-Sep-10 10:30N 50°49' W 001°06'0 0.0
2017-Sep-10 10:00N 50°49' W 001°06'0 0.0
2017-Sep-10 09:30N 50°49' W 001°06'0 0.0
2017-Sep-10 09:00N 50°49' W 001°06'0 0.0
2017-Sep-10 08:30N 50°49' W 001°06'0 0.0
2017-Sep-10 08:00N 50°49' W 001°06'0 0.0
2017-Sep-10 07:30N 50°49' W 001°06'0 0.0
2017-Sep-10 07:00N 50°49' W 001°06'0 0.0
2017-Sep-10 06:30N 50°49' W 001°06'0 0.0
2017-Sep-10 06:00N 50°49' W 001°06'0 0.0
2017-Sep-10 05:30N 50°49' W 001°06'0 0.0
2017-Sep-10 05:00N 50°49' W 001°06'0 0.0
2017-Sep-10 04:30N 50°49' W 001°06'0 0.0
2017-Sep-10 04:00N 50°49' W 001°06'0 0.0
2017-Sep-10 03:30N 50°49' W 001°06'0 0.0
2017-Sep-10 03:00N 50°49' W 001°06'0 0.0
2017-Sep-10 02:30N 50°49' W 001°06'0 0.0
2017-Sep-10 02:00N 50°49' W 001°06'0 0.0
2017-Sep-10 01:30N 50°49' W 001°06'0 0.0
2017-Sep-10 01:00N 50°49' W 001°06'0 0.0
2017-Sep-10 00:30N 50°49' W 001°05'0 0.0
2017-Sep-10 00:00N 50°49' W 001°06'0 0.0
2017-Sep-09 23:30N 50°49' W 001°06'0 0.0
2017-Sep-09 23:00N 50°49' W 001°06'0 0.0
2017-Sep-09 22:30N 50°49' W 001°05'0 0.0
2017-Sep-09 22:00N 50°49' W 001°06'0 0.0
2017-Sep-09 21:30N 50°49' W 001°06'0 0.0
2017-Sep-09 21:00N 50°49' W 001°06'0 0.0
2017-Sep-09 20:30N 50°49' W 001°06'0 0.0
2017-Sep-09 20:00N 50°49' W 001°06'0 0.0
2017-Sep-09 19:30N 50°49' W 001°06'0 0.0
2017-Sep-09 19:00N 50°49' W 001°06'0 0.0
2017-Sep-09 18:30N 50°49' W 001°06'0 0.0
2017-Sep-09 18:00N 50°49' W 001°06'0 0.0
2017-Sep-09 17:30N 50°49' W 001°06'0 0.0
2017-Sep-09 17:00N 50°49' W 001°06'0 0.0
2017-Sep-09 16:30N 50°49' W 001°06'0 0.0
2017-Sep-09 16:00N 50°49' W 001°06'0 0.0
2017-Sep-09 15:30N 50°49' W 001°06'0 0.0
2017-Sep-09 15:00N 50°49' W 001°06'0 0.0
2017-Sep-09 14:30N 50°49' W 001°06'0 0.0
2017-Sep-09 14:00N 50°49' W 001°06'0 0.0
2017-Sep-09 13:30N 50°49' W 001°06'0 0.0
2017-Sep-09 13:00N 50°49' W 001°06'0 0.0
2017-Sep-09 12:30N 50°49' W 001°06'0 0.0
2017-Sep-09 12:00N 50°49' W 001°06'0 0.0
2017-Sep-09 11:30N 50°49' W 001°06'0 0.0
2017-Sep-09 11:00N 50°49' W 001°06'0 0.0
2017-Sep-09 10:30N 50°49' W 001°06'0 0.0
2017-Sep-09 10:00N 50°49' W 001°06'1 1.9
2017-Sep-09 09:31N 50°48' W 001°07'4 8.9
2017-Sep-09 09:00N 50°44' W 001°04'510.4
2017-Sep-09 08:30N 50°40' W 000°59'510.1
2017-Sep-09 08:00N 50°35' W 001°00'918.6
2017-Sep-09 07:30N 50°28' W 001°10'1119.7
2017-Sep-09 06:56N 50°26' W 001°27'818.7
2017-Sep-09 06:30N 50°24' W 001°40'3216.9
2017-Sep-09 04:37N 50°16' W 002°28'216.1
2017-Sep-09 04:29N 50°16' W 002°31'816.1
2017-Sep-09 04:00N 50°14' W 002°43'816.4
2017-Sep-09 03:30N 50°12' W 002°56'816.4
2017-Sep-09 03:00N 50°10' W 003°08'816.4
2017-Sep-09 02:30N 50°07' W 003°20'816.3
2017-Sep-09 02:00N 50°04' W 003°32'816.5
2017-Sep-09 01:30N 50°01' W 003°44'816.8
2017-Sep-09 01:00N 49°59' W 003°56'817.0
2017-Sep-09 00:30N 49°56' W 004°09'917.2
2017-Sep-08 23:58N 49°53' W 004°22'817.2
2017-Sep-08 23:30N 49°50' W 004°34'  
Track history (hours):
 
Tides and Currents Weather Stations Pressure Air Temp Water Temp Dewpoint Dewpoint Depression Visibility Wind Speed Wind Dir Waves Ship Positions

Crown Topaz

Last reported at 2017-Sep-17 09:38 UTC. Time now 2017-Sep-21 19:45 UTC.
Position N 38°38' W 030°50'.

Length 152 m; draft 6.6 m.

Type: Ship. MMSI: 357144000.

Date/timePositionNaut miles runAvg speedWind from/ knotsBaromVisibWave heightAir tempDewpointWater temp
2017-Sep-17 09:38N 38°38' W 030°50'318.8
2017-Sep-17 09:28N 38°39' W 030°46'918.8
2017-Sep-17 09:00N 38°44' W 030°37'919.0
2017-Sep-17 08:30N 38°48' W 030°26'918.6
2017-Sep-17 08:00N 38°53' W 030°16'918.8
2017-Sep-17 07:30N 38°58' W 030°06'919.0
2017-Sep-17 07:00N 39°03' W 029°55'918.8
2017-Sep-17 06:30N 39°08' W 029°45'918.7
2017-Sep-17 06:00N 39°12' W 029°34'919.0
2017-Sep-17 05:30N 39°18' W 029°24'918.6
2017-Sep-17 05:00N 39°23' W 029°14'918.8
2017-Sep-17 04:31N 39°28' W 029°04'918.5
2017-Sep-17 04:00N 39°32' W 028°53'918.9
2017-Sep-17 03:30N 39°37' W 028°43'918.8
2017-Sep-17 03:00N 39°42' W 028°33'918.8
2017-Sep-17 02:30N 39°47' W 028°22'1019.2
2017-Sep-17 02:00N 39°52' W 028°11'1018.8
2017-Sep-17 01:29N 39°57' W 028°01'1019.2
2017-Sep-17 00:57N 40°02' W 027°49'  
2017-Sep-14 10:25N 49°44' W 004°31'715.7
2017-Sep-14 10:00N 49°45' W 004°21'815.7
2017-Sep-14 09:31N 49°46' W 004°09'816.0
2017-Sep-14 09:00N 49°48' W 003°57'816.6
2017-Sep-14 08:31N 49°49' W 003°44'917.5
2017-Sep-14 08:01N 49°51' W 003°31'917.9
2017-Sep-14 07:30N 49°53' W 003°17'918.2
2017-Sep-14 07:01N 49°56' W 003°04'918.6
2017-Sep-14 06:31N 49°59' W 002°50'918.9
2017-Sep-14 06:01N 50°02' W 002°36'2418.4
2017-Sep-14 04:43N 50°07' W 002°00'417.6
2017-Sep-14 04:30N 50°08' W 001°55'917.3
2017-Sep-14 04:01N 50°11' W 001°42'816.6
2017-Sep-14 03:30N 50°13' W 001°29'816.0
2017-Sep-14 03:00N 50°15' W 001°17'815.4
2017-Sep-14 02:29N 50°18' W 001°05'1115.1
2017-Sep-14 01:46N 50°21' W 000°49'1215.2
2017-Sep-14 00:56N 50°24' W 000°30'715.9
2017-Sep-14 00:31N 50°26' W 000°20'816.2
2017-Sep-14 00:00N 50°28' W 000°07'917.1
2017-Sep-13 23:30N 50°29' E 000°06'917.6
2017-Sep-13 23:01N 50°31' E 000°19'918.0
2017-Sep-13 22:31N 50°34' E 000°33'918.1
2017-Sep-13 22:01N 50°38' E 000°45'1018.4
2017-Sep-13 21:27N 50°44' E 000°58'818.2
2017-Sep-13 21:00N 50°49' E 001°09'917.6
2017-Sep-13 20:30N 50°55' E 001°19'817.0
2017-Sep-13 20:01N 51°01' E 001°28'816.0
2017-Sep-13 19:31N 51°07' E 001°37'815.9
2017-Sep-13 19:01N 51°13' E 001°45'815.9
2017-Sep-13 18:31N 51°19' E 001°53'815.4
2017-Sep-13 18:01N 51°25' E 002°01'816.1
2017-Sep-13 17:31N 51°22' E 002°13'714.7
2017-Sep-13 17:01N 51°22' E 002°24'713.1
2017-Sep-13 16:30N 51°23' E 002°35'611.3
2017-Sep-13 16:00N 51°22' E 002°44'5 9.1
2017-Sep-13 15:30N 51°22' E 002°51'611.6
2017-Sep-13 15:00N 51°24' E 003°00'714.5
2017-Sep-13 14:31N 51°24' E 003°12'815.5
2017-Sep-13 14:01N 51°25' E 003°24'713.0
2017-Sep-13 13:30N 51°26' E 003°34'4 7.2
2017-Sep-13 13:00N 51°27' E 003°40'612.0
2017-Sep-13 12:30N 51°22' E 003°46'612.4
2017-Sep-13 12:01N 51°22' E 003°56'5 9.3
2017-Sep-13 11:30N 51°25' E 004°02'510.5
2017-Sep-13 11:00N 51°23' E 004°10'510.1
2017-Sep-13 10:30N 51°20' E 004°16'4 8.1
2017-Sep-13 10:01N 51°17' E 004°20'0 0.2
2017-Sep-13 09:30N 51°17' E 004°20'0 0.0
2017-Sep-13 09:00N 51°17' E 004°20'1 2.6
2017-Sep-13 08:31N 51°16' E 004°21'1 1.6
2017-Sep-13 08:00N 51°16' E 004°23'0 0.0
2017-Sep-13 07:29N 51°16' E 004°23'0 0.0
2017-Sep-13 06:59N 51°16' E 004°23'0 0.0
2017-Sep-13 06:29N 51°16' E 004°23'0 0.0
2017-Sep-13 05:59N 51°16' E 004°23'0 0.0
2017-Sep-13 05:29N 51°16' E 004°23'0 0.0
2017-Sep-13 04:59N 51°16' E 004°23'0 0.0
2017-Sep-13 04:29N 51°16' E 004°23'0 0.0
2017-Sep-13 03:59N 51°16' E 004°23'0 0.0
2017-Sep-13 03:29N 51°16' E 004°23'0 0.0
2017-Sep-13 02:59N 51°16' E 004°23'0 0.0
2017-Sep-13 02:29N 51°16' E 004°23'0 0.0
2017-Sep-13 01:59N 51°16' E 004°23'0 0.0
2017-Sep-13 01:29N 51°16' E 004°23'0 0.0
2017-Sep-13 00:59N 51°16' E 004°23'0 0.0
2017-Sep-13 00:29N 51°16' E 004°23'0 0.0
2017-Sep-12 23:59N 51°16' E 004°23'0 0.0
2017-Sep-12 23:29N 51°16' E 004°23'0 0.0
2017-Sep-12 22:59N 51°16' E 004°23'0 0.0
2017-Sep-12 22:29N 51°16' E 004°23'0 0.0
2017-Sep-12 21:59N 51°16' E 004°23'0 0.0
2017-Sep-12 21:29N 51°16' E 004°23'0 0.0
2017-Sep-12 20:59N 51°16' E 004°23'0 0.0
2017-Sep-12 20:29N 51°16' E 004°23'0 0.0
2017-Sep-12 19:59N 51°16' E 004°23'0 0.0
2017-Sep-12 19:26N 51°16' E 004°23'0 0.0
2017-Sep-12 18:59N 51°16' E 004°23'0 0.0
2017-Sep-12 18:29N 51°16' E 004°23'0 0.0
2017-Sep-12 17:59N 51°16' E 004°23'0 0.0
2017-Sep-12 17:29N 51°16' E 004°23'0 0.0
2017-Sep-12 16:59N 51°16' E 004°23'0 0.0
2017-Sep-12 16:29N 51°16' E 004°23'0 0.0
2017-Sep-12 15:59N 51°16' E 004°23'0 0.0
2017-Sep-12 15:29N 51°16' E 004°23'0 0.0
2017-Sep-12 14:59N 51°16' E 004°23'0 0.0
2017-Sep-12 14:29N 51°16' E 004°23'0 0.0
2017-Sep-12 13:59N 51°16' E 004°23'0 0.0
2017-Sep-12 13:29N 51°16' E 004°23'0 0.0
2017-Sep-12 12:59N 51°16' E 004°23'0 0.0
2017-Sep-12 12:29N 51°16' E 004°23'0 0.0
2017-Sep-12 11:59N 51°16' E 004°23'0 0.0
2017-Sep-12 11:29N 51°16' E 004°23'0 0.0
2017-Sep-12 10:59N 51°16' E 004°23'0 0.0
2017-Sep-12 10:29N 51°16' E 004°23'0 0.0
2017-Sep-12 09:59N 51°16' E 004°23'0 0.0
2017-Sep-12 09:29N 51°16' E 004°23'0 0.0
2017-Sep-12 08:59N 51°16' E 004°23'0 0.0
2017-Sep-12 08:29N 51°16' E 004°23'0 0.0
2017-Sep-12 07:59N 51°16' E 004°23'0 0.0
2017-Sep-12 07:29N 51°16' E 004°23'0 0.0
2017-Sep-12 06:59N 51°16' E 004°23'0 0.0
2017-Sep-12 06:29N 51°16' E 004°23'0 0.0
2017-Sep-12 05:59N 51°16' E 004°23'0 0.0
2017-Sep-12 05:29N 51°16' E 004°23'0 0.0
2017-Sep-12 04:59N 51°16' E 004°23'0 0.0
2017-Sep-12 04:29N 51°16' E 004°23'0 0.0
2017-Sep-12 03:59N 51°16' E 004°23'0 0.0
2017-Sep-12 03:29N 51°16' E 004°23'0 0.0
2017-Sep-12 02:59N 51°16' E 004°23'0 0.0
2017-Sep-12 02:29N 51°16' E 004°23'0 0.0
2017-Sep-12 01:59N 51°16' E 004°23'0 0.0
2017-Sep-12 01:29N 51°16' E 004°23'0 0.0
2017-Sep-12 00:59N 51°16' E 004°23'0 0.0
2017-Sep-12 00:29N 51°16' E 004°23'0 0.0
2017-Sep-11 23:59N 51°16' E 004°23'0 0.0
2017-Sep-11 23:29N 51°16' E 004°23'0 0.0
2017-Sep-11 22:59N 51°16' E 004°23'0 0.0
2017-Sep-11 22:29N 51°16' E 004°23'0 0.0
2017-Sep-11 21:59N 51°16' E 004°23'0 0.0
2017-Sep-11 21:29N 51°16' E 004°23'0 0.0
2017-Sep-11 20:59N 51°16' E 004°23'0 0.0
2017-Sep-11 20:29N 51°16' E 004°23'0 0.0
2017-Sep-11 19:59N 51°16' E 004°23'0 0.0
2017-Sep-11 19:29N 51°16' E 004°23'0 0.0
2017-Sep-11 18:59N 51°16' E 004°23'0 0.0
2017-Sep-11 18:29N 51°16' E 004°23'0 0.0
2017-Sep-11 17:59N 51°16' E 004°23'0 0.0
2017-Sep-11 17:29N 51°16' E 004°23'0 0.0
2017-Sep-11 16:59N 51°16' E 004°23'0 0.0
2017-Sep-11 16:29N 51°16' E 004°23'0 0.0
2017-Sep-11 15:59N 51°16' E 004°23'0 0.0
2017-Sep-11 15:29N 51°16' E 004°23'0 0.0
2017-Sep-11 14:59N 51°16' E 004°23'0 0.0
2017-Sep-11 14:29N 51°16' E 004°23'0 0.0
2017-Sep-11 13:59N 51°16' E 004°23'0 0.0
2017-Sep-11 13:29N 51°16' E 004°23'0 0.0
2017-Sep-11 12:59N 51°16' E 004°23'0 0.0
2017-Sep-11 12:29N 51°16' E 004°23'0 0.0
2017-Sep-11 11:59N 51°16' E 004°23'0 0.0
2017-Sep-11 11:29N 51°16' E 004°23'0 0.0
2017-Sep-11 10:59N 51°16' E 004°23'0 0.0
2017-Sep-11 10:29N 51°16' E 004°23'0 0.0
2017-Sep-11 10:00N 51°16' E 004°23'2 3.7
2017-Sep-11 09:31N 51°17' E 004°20'0 0.2
2017-Sep-11 09:01N 51°17' E 004°20'0 1.0
2017-Sep-11 08:30N 51°17' E 004°19'3 6.3
2017-Sep-11 08:00N 51°19' E 004°16'5 9.8
2017-Sep-11 07:30N 51°24' E 004°12'510.5
2017-Sep-11 07:00N 51°22' E 004°04'5 9.8
2017-Sep-11 06:30N 51°26' E 003°59'611.8
2017-Sep-11 06:00N 51°21' E 003°54'611.6
2017-Sep-11 05:30N 51°22' E 003°44'611.1
2017-Sep-11 05:00N 51°26' E 003°38'510.5
2017-Sep-11 04:30N 51°25' E 003°30'917.1
2017-Sep-11 04:00N 51°24' E 003°16'918.7
2017-Sep-11 03:30N 51°24' E 003°01'917.1
2017-Sep-11 03:00N 51°22' E 002°48'611.2
2017-Sep-11 02:30N 51°22' E 002°39'5 9.5
2017-Sep-11 02:01N 51°22' E 002°32'5 9.5
2017-Sep-11 01:30N 51°20' E 002°24'511.0
2017-Sep-11 01:00N 51°18' E 002°17'510.7
2017-Sep-11 00:30N 51°15' E 002°10'713.4
2017-Sep-11 00:01N 51°11' E 002°00'713.0
2017-Sep-10 23:30N 51°08' E 001°51'612.7
2017-Sep-10 23:00N 51°04' E 001°44'713.6
2017-Sep-10 22:30N 50°60' E 001°35'713.7
2017-Sep-10 22:00N 50°55' E 001°27'714.1
2017-Sep-10 21:29N 50°48' E 001°24'714.0
2017-Sep-10 20:59N 50°42' E 001°19'4114.6
2017-Sep-10 18:11N 50°24' E 000°21'314.7
2017-Sep-10 17:59N 50°24' E 000°16'714.6
2017-Sep-10 17:30N 50°22' E 000°05'714.0
2017-Sep-10 17:01N 50°23' W 000°05'714.5
2017-Sep-10 16:31N 50°26' W 000°16'714.5
2017-Sep-10 16:00N 50°30' W 000°26'714.7
2017-Sep-10 15:30N 50°33' W 000°36'713.7
2017-Sep-10 15:00N 50°36' W 000°46'1211.5
2017-Sep-10 14:00N 50°43' W 001°00'510.0
2017-Sep-10 13:30N 50°47' W 001°06'2 4.1
2017-Sep-10 13:00N 50°49' W 001°06'0 0.1
2017-Sep-10 12:30N 50°49' W 001°06'0 0.0
2017-Sep-10 12:00N 50°49' W 001°06'0 0.0
2017-Sep-10 11:30N 50°49' W 001°06'0 0.0
2017-Sep-10 11:00N 50°49' W 001°06'0 0.0
2017-Sep-10 10:30N 50°49' W 001°06'0 0.0
2017-Sep-10 10:00N 50°49' W 001°06'0 0.0
2017-Sep-10 09:30N 50°49' W 001°06'0 0.0
2017-Sep-10 09:00N 50°49' W 001°06'0 0.0
2017-Sep-10 08:30N 50°49' W 001°06'0 0.0
2017-Sep-10 08:00N 50°49' W 001°06'0 0.0
2017-Sep-10 07:30N 50°49' W 001°06'0 0.0
2017-Sep-10 07:00N 50°49' W 001°06'0 0.0
2017-Sep-10 06:30N 50°49' W 001°06'0 0.0
2017-Sep-10 06:00N 50°49' W 001°06'0 0.0
2017-Sep-10 05:30N 50°49' W 001°06'0 0.0
2017-Sep-10 05:00N 50°49' W 001°06'0 0.0
2017-Sep-10 04:30N 50°49' W 001°06'0 0.0
2017-Sep-10 04:00N 50°49' W 001°06'0 0.0
2017-Sep-10 03:30N 50°49' W 001°06'0 0.0
2017-Sep-10 03:00N 50°49' W 001°06'0 0.0
2017-Sep-10 02:30N 50°49' W 001°06'0 0.0
2017-Sep-10 02:00N 50°49' W 001°06'0 0.0
2017-Sep-10 01:30N 50°49' W 001°06'0 0.0
2017-Sep-10 01:00N 50°49' W 001°06'0 0.0
2017-Sep-10 00:30N 50°49' W 001°05'0 0.0
2017-Sep-10 00:00N 50°49' W 001°06'0 0.0
2017-Sep-09 23:30N 50°49' W 001°06'0 0.0
2017-Sep-09 23:00N 50°49' W 001°06'0 0.0
2017-Sep-09 22:30N 50°49' W 001°05'0 0.0
2017-Sep-09 22:00N 50°49' W 001°06'0 0.0
2017-Sep-09 21:30N 50°49' W 001°06'0 0.0
2017-Sep-09 21:00N 50°49' W 001°06'0 0.0
2017-Sep-09 20:30N 50°49' W 001°06'0 0.0
2017-Sep-09 20:00N 50°49' W 001°06'0 0.0
2017-Sep-09 19:30N 50°49' W 001°06'0 0.0
2017-Sep-09 19:00N 50°49' W 001°06'0 0.0
2017-Sep-09 18:30N 50°49' W 001°06'0 0.0
2017-Sep-09 18:00N 50°49' W 001°06'0 0.0
2017-Sep-09 17:30N 50°49' W 001°06'0 0.0
2017-Sep-09 17:00N 50°49' W 001°06'0 0.0
2017-Sep-09 16:30N 50°49' W 001°06'0 0.0
2017-Sep-09 16:00N 50°49' W 001°06'0 0.0
2017-Sep-09 15:30N 50°49' W 001°06'0 0.0
2017-Sep-09 15:00N 50°49' W 001°06'0 0.0
2017-Sep-09 14:30N 50°49' W 001°06'0 0.0
2017-Sep-09 14:00N 50°49' W 001°06'0 0.0
2017-Sep-09 13:30N 50°49' W 001°06'0 0.0
2017-Sep-09 13:00N 50°49' W 001°06'0 0.0
2017-Sep-09 12:30N 50°49' W 001°06'0 0.0
2017-Sep-09 12:00N 50°49' W 001°06'0 0.0
2017-Sep-09 11:30N 50°49' W 001°06'0 0.0
2017-Sep-09 11:00N 50°49' W 001°06'0 0.0
2017-Sep-09 10:30N 50°49' W 001°06'0 0.0
2017-Sep-09 10:00N 50°49' W 001°06'1 1.9
2017-Sep-09 09:31N 50°48' W 001°07'4 8.9
2017-Sep-09 09:00N 50°44' W 001°04'510.4
2017-Sep-09 08:30N 50°40' W 000°59'510.1
2017-Sep-09 08:00N 50°35' W 001°00'918.6
2017-Sep-09 07:30N 50°28' W 001°10'1119.7
2017-Sep-09 06:56N 50°26' W 001°27'818.7
2017-Sep-09 06:30N 50°24' W 001°40'3216.9
2017-Sep-09 04:37N 50°16' W 002°28'216.1
2017-Sep-09 04:29N 50°16' W 002°31'816.1
2017-Sep-09 04:00N 50°14' W 002°43'816.4
2017-Sep-09 03:30N 50°12' W 002°56'816.4
2017-Sep-09 03:00N 50°10' W 003°08'816.4
2017-Sep-09 02:30N 50°07' W 003°20'816.3
2017-Sep-09 02:00N 50°04' W 003°32'816.5
2017-Sep-09 01:30N 50°01' W 003°44'816.8
2017-Sep-09 01:00N 49°59' W 003°56'817.0
2017-Sep-09 00:30N 49°56' W 004°09'917.2
2017-Sep-08 23:58N 49°53' W 004°22'817.2
2017-Sep-08 23:30N 49°50' W 004°34'  

Dump ship's entire track history